Time;durP1;ratioP1;P1;durP2;ratioP2;P2;SDS_P1;SDS_P2;PMS_P1;PMS_P2;Temp;Humidity;BMP_temperature;BMP_pressure;BME280_temperature;BME280_humidity;BME280_pressure;Samples;Min_cycle;Max_cycle;Signal;HPM_P1;HPM_P2
2023/11/17 00:02:05;;;;;;;12.55;6.32;;;5.70;99.90;;;;;;6236087;23;20035;-81
2023/11/17 00:04:31;;;;;;;13.35;6.70;;;5.70;99.90;;;;;;6219194;23;20043;-81
2023/11/17 00:06:57;;;;;;;11.52;6.72;;;5.60;99.90;;;;;;6195247;23;20023;-81
2023/11/17 00:09:22;;;;;;;11.82;6.93;;;5.60;99.90;;;;;;6219387;23;20087;-81
2023/11/17 00:11:48;;;;;;;16.42;7.00;;;5.60;99.90;;;;;;6218475;23;20004;-81
2023/11/17 00:14:14;;;;;;;12.45;7.00;;;5.60;99.90;;;;;;6218351;23;20012;-81
2023/11/17 00:16:40;;;;;;;13.93;6.15;;;5.50;99.90;;;;;;6217936;23;20012;-78
2023/11/17 00:19:06;;;;;;;15.65;6.57;;;5.50;99.90;;;;;;6218166;23;20000;-79
2023/11/17 00:21:34;;;;;;;13.55;7.78;;;5.50;99.90;;;;;;6218793;23;20087;-79
2023/11/17 00:24:00;;;;;;;14.48;6.75;;;5.40;99.90;;;;;;6218570;23;20008;-78
2023/11/17 00:26:26;;;;;;;15.20;6.43;;;5.40;99.90;;;;;;6219676;23;20022;-80
2023/11/17 00:28:53;;;;;;;20.52;6.88;;;5.40;99.90;;;;;;6217749;23;20004;-81
2023/11/17 00:31:19;;;;;;;15.32;6.45;;;5.40;99.90;;;;;;6221309;23;20026;-81
2023/11/17 00:33:44;;;;;;;16.92;6.25;;;5.40;99.90;;;;;;6248025;23;20012;-80
2023/11/17 00:36:10;;;;;;;12.88;7.00;;;5.30;99.90;;;;;;6219181;23;20019;-81
2023/11/17 00:38:36;;;;;;;13.70;6.55;;;5.30;99.90;;;;;;6218228;23;20080;-81
2023/11/17 00:41:04;;;;;;;13.15;6.95;;;5.30;99.90;;;;;;6220034;23;20008;-81
2023/11/17 00:43:31;;;;;;;13.88;6.88;;;5.30;99.90;;;;;;6220471;23;20030;-79
2023/11/17 00:45:58;;;;;;;14.93;7.38;;;5.30;99.90;;;;;;6218968;23;20008;-79
2023/11/17 00:48:31;;;;;;;10.07;6.32;;;5.30;99.90;;;;;;6218356;23;20044;-79
2023/11/17 00:50:58;;;;;;;10.05;6.32;;;5.20;99.90;;;;;;6221163;23;20054;-81
2023/11/17 00:53:26;;;;;;;12.00;6.28;;;5.30;99.90;;;;;;6246104;23;20027;-79
2023/11/17 00:55:55;;;;;;;17.00;6.60;;;5.20;99.90;;;;;;6219925;23;20008;-81
2023/11/17 00:58:23;;;;;;;14.88;6.38;;;5.20;99.90;;;;;;6219068;23;20084;-79
2023/11/17 01:00:52;;;;;;;14.63;7.00;;;5.10;99.90;;;;;;6219801;23;20505;-81
2023/11/17 01:03:18;;;;;;;15.30;8.35;;;5.10;99.90;;;;;;6210669;23;20008;-79
2023/11/17 01:05:45;;;;;;;15.10;6.95;;;5.00;99.90;;;;;;6240958;23;20012;-77
2023/11/17 01:08:11;;;;;;;19.65;7.88;;;5.00;99.90;;;;;;6194457;23;20016;-81
2023/11/17 01:10:38;;;;;;;12.32;6.57;;;4.90;99.90;;;;;;6218572;22;20095;-81
2023/11/17 01:13:04;;;;;;;15.20;8.55;;;4.90;99.90;;;;;;6216754;23;20004;-81
2023/11/17 01:15:34;;;;;;;17.38;7.10;;;4.90;99.90;;;;;;6207613;23;20743;-77
2023/11/17 01:18:05;;;;;;;13.25;6.63;;;4.80;99.90;;;;;;6219169;23;20000;-78
2023/11/17 01:20:35;;;;;;;14.45;6.88;;;4.70;99.90;;;;;;6220397;22;20332;-78
2023/11/17 01:23:04;;;;;;;13.15;7.43;;;4.70;99.90;;;;;;6217664;23;20016;-79
2023/11/17 01:25:32;;;;;;;13.45;8.23;;;4.60;99.90;;;;;;6219115;23;20729;-82
2023/11/17 01:27:58;;;;;;;13.52;7.80;;;4.60;99.90;;;;;;6218579;23;20043;-82
2023/11/17 01:30:24;;;;;;;16.10;8.23;;;4.60;99.90;;;;;;6220487;22;20046;-80
2023/11/17 01:32:50;;;;;;;19.27;8.40;;;4.50;99.90;;;;;;6220444;23;20346;-78
2023/11/17 01:35:16;;;;;;;15.73;7.85;;;4.50;99.90;;;;;;6219631;23;20012;-80
2023/11/17 01:37:42;;;;;;;12.73;7.82;;;4.50;99.90;;;;;;6216791;23;20429;-80
2023/11/17 01:40:08;;;;;;;20.02;8.88;;;4.50;99.90;;;;;;6217080;23;20019;-81
2023/11/17 01:42:34;;;;;;;15.65;7.85;;;4.50;99.90;;;;;;6219925;23;20008;-80
2023/11/17 01:45:01;;;;;;;21.25;9.98;;;4.40;99.90;;;;;;6245834;23;20006;-81
2023/11/17 01:47:26;;;;;;;19.33;8.98;;;4.40;99.90;;;;;;6225043;23;20079;-81
2023/11/17 01:49:52;;;;;;;23.95;8.30;;;4.40;99.90;;;;;;6224020;23;20005;-77
2023/11/17 01:52:18;;;;;;;18.23;9.70;;;4.40;99.90;;;;;;6234555;23;20096;-77
2023/11/17 01:54:48;;;;;;;24.38;9.43;;;4.30;99.90;;;;;;6227294;23;20031;-80
2023/11/17 01:57:14;;;;;;;18.10;9.13;;;4.40;99.90;;;;;;6221428;23;20054;-79
2023/11/17 01:59:40;;;;;;;20.38;10.63;;;4.30;99.90;;;;;;6215124;23;20004;-79
2023/11/17 02:02:06;;;;;;;20.80;10.18;;;4.40;99.90;;;;;;6247903;22;20038;-80
2023/11/17 02:04:32;;;;;;;18.80;10.55;;;4.40;99.90;;;;;;6221280;23;20500;-81
2023/11/17 02:07:07;;;;;;;21.58;11.40;;;4.40;99.90;;;;;;6220471;23;20070;-79
2023/11/17 02:09:53;;;;;;;27.95;12.15;;;4.30;99.90;;;;;;6221396;23;20008;-80
2023/11/17 02:13:13;;;;;;;21.25;10.32;;;4.30;99.90;;;;;;6221221;23;20012;-79
2023/11/17 02:15:41;;;;;;;21.83;11.07;;;4.30;99.90;;;;;;6159519;23;20212;-80
2023/11/17 02:18:13;;;;;;;23.13;11.52;;;4.30;99.90;;;;;;6209386;23;20004;-79
2023/11/17 02:20:41;;;;;;;25.70;11.75;;;4.30;99.90;;;;;;6220855;22;20012;-81
2023/11/17 02:23:15;;;;;;;29.55;12.23;;;4.30;99.90;;;;;;6223491;23;20488;-78
2023/11/17 02:26:15;;;;;;;27.38;12.77;;;4.40;99.90;;;;;;6221258;23;20033;-83
2023/11/17 02:28:58;;;;;;;28.42;13.80;;;4.30;99.90;;;;;;6220230;23;20011;-81
2023/11/17 02:31:29;;;;;;;27.55;13.65;;;4.40;99.90;;;;;;6220799;23;20118;-79
2023/11/17 02:33:57;;;;;;;24.27;13.02;;;4.30;99.90;;;;;;6220885;23;20041;-81
2023/11/17 02:36:26;;;;;;;32.00;13.32;;;4.30;99.90;;;;;;6220187;23;20004;-81
2023/11/17 02:39:12;;;;;;;25.52;12.75;;;4.30;99.90;;;;;;6218895;23;20008;-80
2023/11/17 02:41:42;;;;;;;24.85;12.35;;;4.30;99.90;;;;;;6208876;23;20012;-80
2023/11/17 02:44:12;;;;;;;30.40;12.68;;;4.20;99.90;;;;;;6220129;23;20074;-80
2023/11/17 02:46:44;;;;;;;24.00;12.40;;;4.10;99.90;;;;;;6219337;23;20004;-81
2023/11/17 02:49:28;;;;;;;25.75;11.85;;;4.10;99.90;;;;;;6222667;23;20004;-82
2023/11/17 02:51:55;;;;;;;24.02;10.77;;;4.00;99.90;;;;;;6218823;23;20019;-81
2023/11/17 02:54:27;;;;;;;18.58;9.98;;;3.90;99.90;;;;;;6219833;23;20000;-80
2023/11/17 02:56:54;;;;;;;28.40;11.60;;;3.90;99.90;;;;;;6222193;23;20431;-81
2023/11/17 02:59:22;;;;;;;25.17;11.95;;;3.80;99.90;;;;;;6219848;23;20062;-81
2023/11/17 03:01:50;;;;;;;24.35;11.20;;;3.70;99.90;;;;;;6221366;23;20000;-81
2023/11/17 03:04:16;;;;;;;24.05;11.23;;;3.60;99.90;;;;;;6201966;23;20016;-81
2023/11/17 03:06:50;;;;;;;27.55;12.52;;;3.60;99.90;;;;;;6222050;23;20015;-81
2023/11/17 03:09:21;;;;;;;28.27;12.88;;;3.50;99.90;;;;;;6221776;23;20004;-79
2023/11/17 03:11:49;;;;;;;26.13;11.82;;;3.50;99.90;;;;;;6220339;23;20014;-81
2023/11/17 03:14:15;;;;;;;31.30;12.10;;;3.50;99.90;;;;;;6220008;23;20031;-79
2023/11/17 03:16:41;;;;;;;35.75;13.68;;;3.40;99.90;;;;;;6222685;23;20000;-81
2023/11/17 03:19:10;;;;;;;36.58;13.77;;;3.40;99.90;;;;;;6221364;23;20014;-80
2023/11/17 03:21:41;;;;;;;36.42;13.55;;;3.30;99.90;;;;;;6219503;23;20460;-80
2023/11/17 03:24:18;;;;;;;32.55;13.73;;;3.30;99.90;;;;;;6220764;23;20066;-81
2023/11/17 03:26:45;;;;;;;31.25;13.25;;;3.30;99.90;;;;;;6220859;23;20343;-80
2023/11/17 03:29:17;;;;;;;31.15;13.50;;;3.30;99.90;;;;;;6220930;23;20102;-81
2023/11/17 03:31:49;;;;;;;31.88;13.70;;;3.30;99.90;;;;;;6220018;23;20083;-81
2023/11/17 03:34:30;;;;;;;32.42;13.75;;;3.30;99.90;;;;;;6221343;23;20071;-81
2023/11/17 03:37:00;;;;;;;29.30;13.63;;;3.30;99.90;;;;;;6220332;23;20004;-80
2023/11/17 03:39:42;;;;;;;33.90;13.40;;;3.20;99.90;;;;;;6221362;23;20016;-81
2023/11/17 03:42:12;;;;;;;43.70;14.73;;;3.20;99.90;;;;;;6225409;23;20034;-79
2023/11/17 03:44:38;;;;;;;35.83;13.80;;;3.20;99.90;;;;;;6235505;23;20038;-77
2023/11/17 03:47:06;;;;;;;32.55;13.55;;;3.10;99.90;;;;;;6220797;23;20015;-81
2023/11/17 03:49:36;;;;;;;31.50;14.07;;;3.10;99.90;;;;;;6219319;23;20767;-79
2023/11/17 03:52:03;;;;;;;38.00;14.55;;;3.10;99.90;;;;;;6219702;23;20011;-81
2023/11/17 03:54:29;;;;;;;35.65;13.45;;;3.00;99.90;;;;;;6220448;23;20004;-80
2023/11/17 03:56:56;;;;;;;41.80;15.73;;;3.00;99.90;;;;;;6219023;23;20008;-81
2023/11/17 03:59:24;;;;;;;25.92;12.13;;;2.90;99.90;;;;;;6216308;23;20014;-81
2023/11/17 04:01:51;;;;;;;37.50;13.80;;;2.90;99.90;;;;;;6218417;23;20008;-80
2023/11/17 04:04:20;;;;;;;27.67;13.43;;;2.90;99.90;;;;;;6222800;23;20007;-79
2023/11/17 04:06:49;;;;;;;35.50;15.63;;;2.80;99.90;;;;;;6205729;23;20016;-78
2023/11/17 04:09:20;;;;;;;33.33;14.30;;;2.80;99.90;;;;;;6228708;23;20019;-79
2023/11/17 04:11:47;;;;;;;34.00;14.80;;;2.80;99.90;;;;;;6228797;23;20054;-78
2023/11/17 04:14:13;;;;;;;46.95;15.10;;;2.80;99.90;;;;;;6229063;23;20027;-77
2023/11/17 04:16:39;;;;;;;66.93;16.77;;;2.90;99.90;;;;;;6224427;23;20007;-80
2023/11/17 04:19:05;;;;;;;41.65;16.55;;;3.10;99.90;;;;;;6227249;23;20325;-79
2023/11/17 04:21:32;;;;;;;65.32;19.42;;;3.10;99.90;;;;;;6227862;23;20011;-80
2023/11/17 04:23:58;;;;;;;98.88;19.33;;;3.30;99.90;;;;;;6229420;23;20506;-78
2023/11/17 04:26:24;;;;;;;104.22;18.48;;;3.40;99.90;;;;;;6230695;23;20066;-80
2023/11/17 04:28:49;;;;;;;160.45;21.77;;;3.50;99.90;;;;;;6228330;23;20012;-78
2023/11/17 04:31:15;;;;;;;62.28;19.45;;;3.60;99.90;;;;;;6228320;23;20000;-82
2023/11/17 04:33:41;;;;;;;69.05;19.48;;;3.60;99.90;;;;;;6251343;23;20005;-78
2023/11/17 04:36:10;;;;;;;56.60;19.02;;;3.70;99.90;;;;;;6227018;23;20023;-81
2023/11/17 04:38:39;;;;;;;66.60;21.23;;;3.80;99.90;;;;;;6229930;23;20334;-80
2023/11/17 04:41:05;;;;;;;50.30;18.58;;;3.90;99.90;;;;;;6254668;22;20016;-78
2023/11/17 04:43:32;;;;;;;49.05;16.08;;;3.90;99.90;;;;;;6229472;23;20008;-78
2023/11/17 04:45:57;;;;;;;63.22;19.73;;;3.90;99.90;;;;;;6229852;23;20768;-79
2023/11/17 04:48:23;;;;;;;66.63;21.95;;;3.90;99.90;;;;;;6229028;23;20005;-79
2023/11/17 04:50:49;;;;;;;59.22;19.63;;;4.00;99.90;;;;;;6230845;23;20008;-80
2023/11/17 04:53:19;;;;;;;58.40;19.13;;;4.00;99.90;;;;;;6232353;23;20010;-80
2023/11/17 04:55:48;;;;;;;50.85;19.45;;;4.10;99.90;;;;;;6231399;23;20027;-79
2023/11/17 04:58:14;;;;;;;57.78;19.98;;;4.10;99.90;;;;;;6231194;23;20462;-79
2023/11/17 05:00:41;;;;;;;63.28;21.48;;;4.10;99.90;;;;;;6231570;22;20015;-79
2023/11/17 05:03:07;;;;;;;52.25;19.60;;;4.10;99.90;;;;;;6230654;23;20008;-79
2023/11/17 05:05:36;;;;;;;46.05;18.17;;;4.10;99.90;;;;;;6230325;23;20446;-79
2023/11/17 05:08:02;;;;;;;72.43;18.52;;;4.10;99.90;;;;;;6218185;23;20024;-79
2023/11/17 05:10:27;;;;;;;50.30;18.38;;;4.20;99.90;;;;;;6231155;22;20022;-80
2023/11/17 05:12:53;;;;;;;78.63;18.23;;;4.20;99.90;;;;;;6232388;23;20008;-80
2023/11/17 05:15:24;;;;;;;52.05;19.98;;;4.20;99.90;;;;;;6229916;23;20015;-79
2023/11/17 05:17:50;;;;;;;72.13;19.35;;;4.20;99.90;;;;;;6230224;23;20004;-78
2023/11/17 05:20:19;;;;;;;67.75;17.42;;;4.30;99.90;;;;;;6229415;23;20338;-78
2023/11/17 05:22:47;;;;;;;74.45;18.80;;;4.30;99.90;;;;;;6230224;23;20004;-79
2023/11/17 05:25:14;;;;;;;63.85;18.60;;;4.20;99.90;;;;;;6229306;23;20015;-79
2023/11/17 05:27:42;;;;;;;63.88;17.27;;;4.30;99.90;;;;;;6230216;23;20004;-82
2023/11/17 05:30:12;;;;;;;72.53;17.70;;;4.30;99.90;;;;;;6231255;23;20391;-80
2023/11/17 05:32:40;;;;;;;75.20;16.88;;;4.30;99.90;;;;;;6231290;23;20012;-79
2023/11/17 05:35:07;;;;;;;58.40;18.23;;;4.30;99.90;;;;;;6232517;23;20004;-78
2023/11/17 05:37:34;;;;;;;81.18;17.75;;;4.20;99.90;;;;;;6235558;23;20019;-78
2023/11/17 05:40:00;;;;;;;102.80;18.42;;;4.20;99.90;;;;;;6233077;23;20071;-79
2023/11/17 05:42:28;;;;;;;42.92;15.88;;;4.20;99.90;;;;;;6233595;23;20019;-80
2023/11/17 05:44:54;;;;;;;66.07;16.73;;;4.20;99.90;;;;;;6231888;23;20008;-76
2023/11/17 05:47:21;;;;;;;43.47;16.35;;;4.20;99.90;;;;;;6229214;23;20004;-80
2023/11/17 05:49:47;;;;;;;55.60;16.80;;;4.30;99.90;;;;;;6232377;23;20014;-83
2023/11/17 05:52:15;;;;;;;91.22;19.55;;;4.30;99.90;;;;;;6233125;23;20004;-82
2023/11/17 05:54:46;;;;;;;65.97;17.20;;;4.30;99.90;;;;;;6232851;23;20000;-77
2023/11/17 05:57:17;;;;;;;68.03;16.77;;;4.20;99.90;;;;;;6232195;23;20004;-79
2023/11/17 05:59:45;;;;;;;57.47;17.27;;;4.20;99.90;;;;;;6233917;23;20099;-77
2023/11/17 06:02:14;;;;;;;70.43;17.75;;;4.20;99.90;;;;;;6233610;23;20053;-79
2023/11/17 06:04:41;;;;;;;79.72;17.23;;;4.20;99.90;;;;;;6234430;23;20018;-79
2023/11/17 06:07:08;;;;;;;84.22;17.52;;;4.30;99.90;;;;;;6232711;23;20012;-77
2023/11/17 06:09:35;;;;;;;77.63;15.50;;;4.20;99.90;;;;;;6235368;23;20008;-76
2023/11/17 06:12:03;;;;;;;46.70;14.88;;;4.20;99.90;;;;;;6233788;23;20004;-77
2023/11/17 06:14:36;;;;;;;92.63;15.80;;;4.20;99.90;;;;;;6234508;23;20000;-77
2023/11/17 06:17:06;;;;;;;51.97;14.93;;;4.10;99.90;;;;;;6233429;23;20023;-77
2023/11/17 06:19:33;;;;;;;67.45;16.38;;;4.20;99.90;;;;;;6234498;23;20511;-79
2023/11/17 06:22:02;;;;;;;37.92;13.75;;;4.10;99.90;;;;;;6234367;23;20000;-76
2023/11/17 06:24:28;;;;;;;57.90;14.85;;;4.10;99.90;;;;;;6234236;23;20004;-78
2023/11/17 06:26:54;;;;;;;43.67;13.85;;;4.10;99.90;;;;;;6259321;23;20011;-80
2023/11/17 06:29:22;;;;;;;47.67;16.85;;;4.10;99.90;;;;;;6234297;23;20024;-79
2023/11/17 06:31:49;;;;;;;68.50;14.60;;;4.10;99.90;;;;;;6234012;23;20032;-79
2023/11/17 06:34:15;;;;;;;91.13;15.13;;;4.10;99.90;;;;;;6233612;23;20061;-79
2023/11/17 06:36:44;;;;;;;107.57;16.88;;;4.10;99.90;;;;;;6232876;23;20362;-78
2023/11/17 06:39:18;;;;;;;53.13;14.45;;;4.10;99.90;;;;;;6234548;23;20004;-78
2023/11/17 06:41:49;;;;;;;40.17;15.77;;;4.00;99.90;;;;;;6233234;23;20008;-81
2023/11/17 06:44:19;;;;;;;78.30;15.65;;;4.10;99.90;;;;;;6234188;23;20012;-78
2023/11/17 06:46:46;;;;;;;136.45;19.00;;;4.10;99.90;;;;;;6233296;23;20015;-78
2023/11/17 06:49:14;;;;;;;152.90;17.38;;;4.00;99.90;;;;;;6234067;23;20051;-81
2023/11/17 06:51:43;;;;;;;87.47;16.67;;;3.90;99.90;;;;;;6232485;23;20469;-78
2023/11/17 06:54:11;;;;;;;113.03;17.35;;;4.00;99.90;;;;;;6233367;23;20008;-78
2023/11/17 06:56:43;;;;;;;35.15;13.75;;;4.00;99.90;;;;;;6232812;23;20005;-77
2023/11/17 06:59:10;;;;;;;62.22;17.23;;;4.00;99.90;;;;;;6263348;23;19996;-80
2023/11/17 07:01:37;;;;;;;98.70;16.45;;;4.00;99.90;;;;;;6234322;23;20015;-79
2023/11/17 07:04:08;;;;;;;130.48;16.60;;;4.00;99.90;;;;;;6262155;23;20022;-80
2023/11/17 07:06:34;;;;;;;48.72;14.48;;;3.90;99.90;;;;;;6232144;23;20011;-79
2023/11/17 07:09:16;;;;;;;118.60;15.88;;;3.90;99.90;;;;;;6234767;23;20007;-80
2023/11/17 07:11:44;;;;;;;49.88;15.93;;;3.90;99.90;;;;;;6224000;23;20004;-79
2023/11/17 07:14:11;;;;;;;80.82;16.58;;;3.90;99.90;;;;;;6234795;23;20024;-80
2023/11/17 07:16:39;;;;;;;44.20;16.13;;;4.00;99.90;;;;;;6233476;23;20023;-80
2023/11/17 07:19:08;;;;;;;57.92;16.63;;;4.00;99.90;;;;;;6233980;23;20584;-79
2023/11/17 07:21:37;;;;;;;53.28;16.13;;;4.00;99.90;;;;;;6234707;23;20051;-80
2023/11/17 07:24:07;;;;;;;74.75;18.33;;;4.10;99.90;;;;;;6233591;23;20026;-79
2023/11/17 07:26:34;;;;;;;62.50;17.50;;;4.10;99.90;;;;;;6250490;23;20004;-81
2023/11/17 07:29:02;;;;;;;92.47;18.35;;;4.10;99.90;;;;;;6235656;23;20027;-80
2023/11/17 07:31:37;;;;;;;68.13;18.67;;;4.20;99.90;;;;;;6238436;23;20004;-79
2023/11/17 07:34:07;;;;;;;65.25;16.42;;;4.20;99.90;;;;;;6234950;23;20004;-80
2023/11/17 07:36:39;;;;;;;47.47;17.73;;;4.20;99.90;;;;;;6232787;23;20001;-77
2023/11/17 07:39:06;;;;;;;53.30;16.55;;;4.20;99.90;;;;;;6235037;23;20077;-78
2023/11/17 07:41:33;;;;;;;50.90;15.55;;;4.30;99.90;;;;;;6234116;23;20012;-79
2023/11/17 07:44:03;;;;;;;53.70;16.58;;;4.30;99.90;;;;;;6233827;23;20019;-77
2023/11/17 07:46:29;;;;;;;59.38;17.80;;;4.30;99.90;;;;;;6234457;23;20004;-80
2023/11/17 07:48:55;;;;;;;84.00;18.30;;;4.30;99.90;;;;;;6234119;23;20099;-80
2023/11/17 07:51:22;;;;;;;116.35;18.10;;;4.30;99.90;;;;;;6232341;23;20012;-79
2023/11/17 07:53:48;;;;;;;145.00;20.38;;;4.30;99.90;;;;;;6233142;23;20004;-80
2023/11/17 07:56:14;;;;;;;111.60;17.63;;;4.30;99.90;;;;;;6233507;23;19996;-80
2023/11/17 07:58:44;;;;;;;79.38;17.90;;;4.40;99.90;;;;;;6258063;23;20011;-81
2023/11/17 08:01:10;;;;;;;75.15;17.65;;;4.40;99.90;;;;;;6230955;23;20008;-79
2023/11/17 08:03:37;;;;;;;50.22;18.42;;;4.50;99.90;;;;;;6234930;23;20014;-78
2023/11/17 08:06:04;;;;;;;59.60;17.27;;;4.60;99.90;;;;;;6233272;23;20008;-80
2023/11/17 08:08:31;;;;;;;82.05;18.88;;;4.60;99.90;;;;;;6260474;23;20016;-77
2023/11/17 08:10:59;;;;;;;146.75;21.08;;;4.70;99.90;;;;;;6235392;23;20004;-81
2023/11/17 08:13:25;;;;;;;47.58;16.25;;;4.80;99.90;;;;;;6233544;23;20004;-79
2023/11/17 08:15:51;;;;;;;102.88;20.98;;;4.80;99.90;;;;;;6258699;23;19996;-80
2023/11/17 08:18:18;;;;;;;127.10;18.75;;;4.80;99.90;;;;;;6233830;23;20022;-79
2023/11/17 08:20:47;;;;;;;52.30;18.02;;;4.90;99.90;;;;;;6232723;22;20007;-80
2023/11/17 08:23:14;;;;;;;58.70;17.45;;;4.90;99.90;;;;;;6231149;23;20055;-79
2023/11/17 08:25:40;;;;;;;53.88;17.10;;;5.00;99.90;;;;;;6230125;23;20008;-80
2023/11/17 08:28:09;;;;;;;126.95;19.88;;;5.10;99.90;;;;;;6257530;23;20426;-79
2023/11/17 08:30:37;;;;;;;112.07;19.73;;;5.10;99.90;;;;;;6233481;22;20008;-78
2023/11/17 08:33:03;;;;;;;74.68;17.88;;;5.10;99.90;;;;;;6232228;23;20015;-80
2023/11/17 08:35:30;;;;;;;54.65;18.20;;;5.10;99.90;;;;;;6229143;23;20000;-79
2023/11/17 08:37:56;;;;;;;73.75;18.33;;;5.20;99.90;;;;;;6232659;23;20027;-81
2023/11/17 08:40:22;;;;;;;46.75;18.10;;;5.20;99.90;;;;;;6233714;23;20023;-81
2023/11/17 08:42:49;;;;;;;80.15;19.17;;;5.20;99.90;;;;;;6232134;23;20027;-79
2023/11/17 08:45:15;;;;;;;54.58;18.02;;;5.20;99.90;;;;;;6258096;23;20004;-79
2023/11/17 08:47:46;;;;;;;48.70;17.90;;;5.20;99.90;;;;;;6230788;23;20087;-81
2023/11/17 08:50:13;;;;;;;75.60;17.75;;;5.20;99.90;;;;;;6232802;23;20008;-77
2023/11/17 08:52:44;;;;;;;48.72;17.88;;;5.20;99.90;;;;;;6258817;22;20008;-79
2023/11/17 08:55:13;;;;;;;45.45;17.52;;;5.20;99.90;;;;;;6233163;23;20010;-80
2023/11/17 08:57:41;;;;;;;55.50;18.25;;;5.20;99.90;;;;;;6222587;23;20012;-78
2023/11/17 09:00:25;;;;;;;79.18;17.42;;;5.30;99.90;;;;;;6224098;23;20211;-79
2023/11/17 09:02:52;;;;;;;115.72;19.95;;;5.40;99.90;;;;;;6231797;23;20446;-77
2023/11/17 09:05:19;;;;;;;69.28;19.10;;;5.30;99.90;;;;;;6231502;23;20018;-80
2023/11/17 09:07:46;;;;;;;64.68;17.58;;;5.30;99.90;;;;;;6223673;23;20008;-79
2023/11/17 09:10:20;;;;;;;48.15;19.15;;;5.40;99.90;;;;;;6258761;23;19996;-79
2023/11/17 09:12:47;;;;;;;;;;;5.40;99.90;;;;;;6229693;23;20012;-78
2023/11/17 09:15:18;;;;;;;54.92;19.40;;;5.40;99.90;;;;;;6231830;23;19900;-80
2023/11/17 09:17:47;;;;;;;46.28;16.98;;;5.40;99.90;;;;;;6221072;23;20059;-82
2023/11/17 09:20:14;;;;;;;71.68;20.92;;;5.50;99.90;;;;;;6232612;23;20468;-76
2023/11/17 09:22:44;;;;;;;42.65;17.33;;;5.60;99.90;;;;;;6231845;23;20011;-78
2023/11/17 09:25:15;;;;;;;45.03;19.10;;;5.70;99.90;;;;;;6236211;23;20004;-78
2023/11/17 09:27:44;;;;;;;42.10;17.65;;;5.70;99.90;;;;;;6231366;23;20071;-78
2023/11/17 09:30:21;;;;;;;51.45;17.77;;;5.80;99.90;;;;;;6233000;23;20015;-79
2023/11/17 09:32:57;;;;;;;47.90;21.52;;;5.90;99.90;;;;;;6231562;23;20019;-77
2023/11/17 09:35:27;;;;;;;42.58;18.98;;;5.90;99.90;;;;;;6256249;23;19996;-81
2023/11/17 09:37:53;;;;;;;42.00;18.17;;;6.10;99.90;;;;;;6224243;23;20083;-78
2023/11/17 09:40:23;;;;;;;47.22;17.92;;;6.20;99.90;;;;;;6226402;23;20004;-81
2023/11/17 09:42:54;;;;;;;46.33;19.27;;;6.10;99.90;;;;;;6224823;23;20008;-78
2023/11/17 09:45:25;;;;;;;43.63;18.35;;;6.30;99.90;;;;;;6225083;23;20583;-79
2023/11/17 09:47:59;;;;;;;49.28;19.50;;;6.40;99.90;;;;;;6222888;23;20323;-80
2023/11/17 09:50:29;;;;;;;41.60;17.75;;;6.60;99.90;;;;;;6224679;22;20073;-79
2023/11/17 09:52:59;;;;;;;42.00;18.35;;;6.60;99.90;;;;;;6224459;23;20027;-80
2023/11/17 09:55:27;;;;;;;44.78;19.27;;;6.70;99.90;;;;;;6224254;23;20316;-80
2023/11/17 09:57:55;;;;;;;36.80;16.60;;;6.70;99.90;;;;;;6233633;23;20008;-78
2023/11/17 10:00:27;;;;;;;43.05;19.85;;;6.70;99.90;;;;;;6232948;23;20020;-78
2023/11/17 10:03:02;;;;;;;37.88;18.27;;;6.80;99.90;;;;;;6233703;23;20004;-79
2023/11/17 10:05:33;;;;;;;36.67;17.27;;;6.80;99.90;;;;;;6232106;23;20004;-81
2023/11/17 10:08:14;;;;;;;34.78;16.70;;;6.80;99.90;;;;;;6223687;23;20073;-77
2023/11/17 10:10:45;;;;;;;39.10;16.77;;;6.80;99.90;;;;;;6227694;22;20022;-79
2023/11/17 10:13:13;;;;;;;37.97;17.30;;;6.90;99.90;;;;;;6234066;23;20011;-80
2023/11/17 10:15:45;;;;;;;36.40;18.20;;;6.80;99.90;;;;;;6229137;23;20007;-80
2023/11/17 10:18:25;;;;;;;35.38;16.75;;;6.80;99.90;;;;;;6232288;23;20022;-80
2023/11/17 10:20:57;;;;;;;35.47;16.80;;;6.80;99.90;;;;;;6232270;23;20493;-80
2023/11/17 10:23:27;;;;;;;44.17;18.77;;;6.70;99.90;;;;;;6233981;23;20004;-81
2023/11/17 10:25:56;;;;;;;41.97;17.90;;;6.70;99.90;;;;;;6232251;23;20008;-79
2023/11/17 10:28:24;;;;;;;34.90;16.15;;;6.70;99.90;;;;;;6232755;23;20012;-76
2023/11/17 10:30:54;;;;;;;38.60;17.67;;;6.90;99.90;;;;;;6233804;23;20007;-79
2023/11/17 10:33:42;;;;;;;32.08;14.52;;;7.00;99.90;;;;;;6233964;23;20043;-79
2023/11/17 10:36:10;;;;;;;32.92;16.42;;;7.00;99.90;;;;;;6229973;23;19996;-79
2023/11/17 10:38:40;;;;;;;34.78;16.52;;;7.10;99.90;;;;;;6232601;23;20008;-78
2023/11/17 10:41:22;;;;;;;33.05;16.75;;;7.10;99.90;;;;;;6231946;23;20012;-79
2023/11/17 10:43:50;;;;;;;33.00;15.45;;;7.20;99.90;;;;;;6233117;23;20004;-77
2023/11/17 10:46:22;;;;;;;32.50;16.90;;;7.20;99.90;;;;;;6230025;23;20008;-80
2023/11/17 10:48:50;;;;;;;39.05;17.80;;;7.20;99.90;;;;;;6233420;23;20004;-78
2023/11/17 10:51:18;;;;;;;34.95;16.73;;;7.20;99.90;;;;;;6234092;23;20431;-78
2023/11/17 10:54:13;;;;;;;34.22;16.00;;;7.00;99.90;;;;;;6234513;23;20008;-78
2023/11/17 10:56:40;;;;;;;35.17;17.35;;;7.00;99.90;;;;;;6228147;23;20000;-77
2023/11/17 10:59:09;;;;;;;39.92;15.80;;;7.00;99.90;;;;;;6231848;23;20067;-81
2023/11/17 11:01:40;;;;;;;36.75;17.90;;;7.00;99.90;;;;;;6232666;23;20035;-79
2023/11/17 11:04:14;;;;;;;38.97;19.05;;;7.00;99.90;;;;;;6230213;23;20323;-78
2023/11/17 11:06:45;;;;;;;38.15;17.38;;;7.00;99.90;;;;;;6231868;23;20423;-81
2023/11/17 11:09:17;;;;;;;39.35;17.40;;;7.00;99.90;;;;;;6231646;23;20015;-80
2023/11/17 11:11:50;;;;;;;34.38;17.83;;;6.90;99.90;;;;;;6232608;23;20076;-78
2023/11/17 11:14:17;;;;;;;33.00;15.80;;;6.90;99.90;;;;;;6233228;23;20008;-77
2023/11/17 11:16:46;;;;;;;37.08;18.13;;;7.00;99.90;;;;;;6235648;23;20075;-77
2023/11/17 11:19:14;;;;;;;40.85;17.83;;;7.10;99.90;;;;;;6233022;23;20636;-79
2023/11/17 11:21:40;;;;;;;38.70;18.45;;;7.10;99.90;;;;;;6229592;23;20000;-77
2023/11/17 11:24:08;;;;;;;28.88;15.30;;;7.00;99.90;;;;;;6231949;23;20008;-79
2023/11/17 11:26:38;;;;;;;37.47;16.48;;;7.10;99.90;;;;;;6230719;23;20012;-76
2023/11/17 11:29:05;;;;;;;33.50;16.65;;;7.10;99.90;;;;;;6232182;23;20446;-79
2023/11/17 11:31:33;;;;;;;33.83;16.98;;;7.20;99.90;;;;;;6232231;23;20019;-77
2023/11/17 11:34:03;;;;;;;34.50;16.02;;;7.40;99.90;;;;;;6231111;23;20066;-79
2023/11/17 11:36:29;;;;;;;36.72;17.33;;;7.60;99.90;;;;;;6230672;23;20010;-79
2023/11/17 11:38:56;;;;;;;34.75;16.35;;;7.70;99.90;;;;;;6233359;23;20030;-80
2023/11/17 11:41:23;;;;;;;30.42;15.57;;;7.90;99.90;;;;;;6232828;23;20016;-78
2023/11/17 11:43:51;;;;;;;36.42;17.10;;;8.00;99.90;;;;;;6231893;23;20070;-78
2023/11/17 11:46:20;;;;;;;33.13;15.93;;;8.00;99.90;;;;;;6230914;23;20008;-84
2023/11/17 11:48:49;;;;;;;37.95;17.75;;;8.00;99.90;;;;;;6233152;23;20031;-78
2023/11/17 11:51:17;;;;;;;30.90;16.15;;;7.90;99.90;;;;;;6233799;23;20034;-78
2023/11/17 11:53:56;;;;;;;31.15;16.52;;;7.90;99.90;;;;;;6232596;23;20006;-79
2023/11/17 11:56:34;;;;;;;36.17;15.27;;;8.00;99.90;;;;;;6230416;23;20000;-78
2023/11/17 11:59:02;;;;;;;29.27;14.90;;;8.20;99.90;;;;;;6232408;23;20004;-81
2023/11/17 12:01:32;;;;;;;31.00;16.73;;;8.20;99.90;;;;;;6230708;23;20004;-80
2023/11/17 12:04:05;;;;;;;32.08;17.20;;;8.20;99.90;;;;;;6231351;23;20120;-80
2023/11/17 12:06:33;;;;;;;35.08;16.83;;;8.20;99.90;;;;;;6231350;23;20007;-78
2023/11/17 12:09:16;;;;;;;39.22;17.33;;;8.30;99.90;;;;;;6232001;23;20091;-80
2023/11/17 12:11:52;;;;;;;32.72;18.08;;;8.40;99.90;;;;;;6232589;23;20004;-79
2023/11/17 12:14:36;;;;;;;28.02;15.43;;;8.50;99.90;;;;;;6233007;23;20316;-79
2023/11/17 12:17:02;;;;;;;32.90;17.15;;;8.60;99.90;;;;;;6230358;23;20030;-79
2023/11/17 12:19:32;;;;;;;33.10;15.93;;;8.60;99.90;;;;;;6231820;23;20011;-79
2023/11/17 12:22:03;;;;;;;34.42;16.83;;;8.50;99.90;;;;;;6258737;22;20008;-81
2023/11/17 12:24:33;;;;;;;31.30;16.98;;;8.60;99.90;;;;;;6232651;23;20004;-81
2023/11/17 12:26:59;;;;;;;33.58;16.95;;;8.50;99.90;;;;;;6232822;23;20014;-78
2023/11/17 12:29:27;;;;;;;35.72;16.45;;;8.60;99.90;;;;;;6231199;23;20014;-81
2023/11/17 12:31:54;;;;;;;41.67;18.58;;;8.80;99.90;;;;;;6258300;22;20000;-78
2023/11/17 12:34:22;;;;;;;27.50;14.60;;;8.80;99.90;;;;;;6232187;23;20026;-80
2023/11/17 12:36:54;;;;;;;31.00;16.15;;;8.80;99.90;;;;;;6230414;23;20023;-80
2023/11/17 12:39:20;;;;;;;26.52;14.60;;;8.90;99.90;;;;;;6232499;23;20011;-79
2023/11/17 12:41:51;;;;;;;80.97;30.77;;;9.00;99.90;;;;;;6256123;22;20020;-77
2023/11/17 12:44:18;;;;;;;35.47;17.27;;;8.90;99.90;;;;;;6231573;23;20091;-80
2023/11/17 12:46:45;;;;;;;28.75;14.57;;;8.90;99.90;;;;;;6230063;23;20468;-78
2023/11/17 12:49:14;;;;;;;27.73;15.43;;;9.00;99.90;;;;;;6233336;23;20438;-81